createdAt,value
2018-01-19T00:02:12.931Z,1.10
2018-01-19T00:04:40.376Z,1.20
2018-01-19T00:07:07.803Z,1.23
2018-01-19T00:09:35.248Z,1.07
2018-01-19T00:12:02.670Z,1.37
2018-01-19T00:14:30.103Z,1.70
2018-01-19T00:16:57.541Z,1.90
2018-01-19T00:19:24.975Z,1.57
2018-01-19T00:21:52.403Z,1.70
2018-01-19T00:24:20.600Z,1.40
2018-01-19T00:26:48.024Z,1.90
2018-01-19T00:29:15.463Z,1.23
2018-01-19T00:31:42.896Z,1.20
2018-01-19T00:34:10.330Z,1.73
2018-01-19T00:36:38.527Z,1.07
2018-01-19T00:39:06.737Z,1.50
2018-01-19T00:41:34.167Z,1.30
2018-01-19T00:44:01.598Z,1.30
2018-01-19T00:46:29.805Z,1.40
2018-01-19T00:48:57.239Z,1.00
2018-01-19T00:51:24.667Z,1.10
2018-01-19T00:53:52.099Z,1.30
2018-01-19T00:56:19.544Z,1.30
2018-01-19T00:58:46.987Z,1.43
2018-01-19T01:01:15.175Z,1.30
2018-01-19T01:03:42.616Z,1.37
2018-01-19T01:06:10.053Z,1.67
2018-01-19T01:08:38.242Z,2.10
2018-01-19T01:11:06.443Z,1.20
2018-01-19T01:13:34.638Z,1.60
2018-01-19T01:16:02.834Z,1.33
2018-01-19T01:18:31.026Z,1.20
2018-01-19T01:20:58.467Z,1.30
2018-01-19T01:23:25.900Z,1.93
2018-01-19T01:25:54.099Z,1.10
2018-01-19T01:28:22.294Z,1.20
2018-01-19T01:30:50.490Z,1.07
2018-01-19T01:33:18.692Z,1.30
2018-01-19T01:35:46.898Z,2.20
2018-01-19T01:38:15.091Z,3.23
2018-01-19T01:40:43.290Z,0.90
2018-01-19T01:43:11.487Z,1.23
2018-01-19T01:45:39.693Z,1.07
2018-01-19T01:48:07.883Z,1.37
2018-01-19T01:50:36.079Z,1.10
2018-01-19T01:53:04.275Z,1.40
2018-01-19T01:55:32.479Z,2.10
2018-01-19T01:58:00.671Z,1.30
2018-01-19T02:00:28.103Z,1.30
2018-01-19T02:02:55.530Z,1.53
2018-01-19T02:05:22.967Z,1.00
2018-01-19T02:07:50.394Z,1.13
2018-01-19T02:10:18.595Z,0.83
2018-01-19T02:12:46.796Z,1.00
2018-01-19T02:15:15.001Z,1.10
2018-01-19T02:17:43.187Z,0.87
2018-01-19T02:20:11.397Z,1.10
2018-01-19T02:22:39.582Z,1.23
2018-01-19T02:25:07.790Z,1.00
2018-01-19T02:27:35.983Z,0.90
2018-01-19T02:30:04.187Z,0.70
2018-01-19T02:32:32.379Z,0.80
2018-01-19T02:35:00.579Z,0.90
2018-01-19T02:37:28.770Z,0.83
2018-01-19T02:39:56.211Z,0.80
2018-01-19T02:42:23.634Z,0.83
2018-01-19T02:44:51.835Z,1.00
2018-01-19T02:47:20.054Z,0.87
2018-01-19T02:49:47.490Z,0.80
2018-01-19T02:52:14.919Z,0.70
2018-01-19T02:54:42.355Z,0.93
2018-01-19T02:57:09.785Z,0.87
2018-01-19T02:59:37.430Z,0.90
2018-01-19T03:02:04.862Z,1.00
2018-01-19T03:04:32.294Z,0.70
2018-01-19T03:06:59.718Z,1.00
2018-01-19T03:09:27.146Z,0.70
2018-01-19T03:11:54.574Z,0.60
2018-01-19T03:14:22.003Z,0.80
2018-01-19T03:16:49.435Z,0.70
2018-01-19T03:19:16.863Z,0.70
2018-01-19T03:21:44.299Z,0.60
2018-01-19T03:24:11.726Z,1.07
2018-01-19T03:26:39.158Z,0.50
2018-01-19T03:29:06.583Z,0.97
2018-01-19T03:31:34.019Z,0.70
2018-01-19T03:34:01.447Z,0.70
2018-01-19T03:36:28.879Z,0.60
2018-01-19T03:38:56.307Z,0.60
2018-01-19T03:41:23.740Z,0.60
2018-01-19T03:43:51.166Z,0.70
2018-01-19T03:46:18.594Z,0.70
2018-01-19T03:48:46.083Z,0.70
2018-01-19T03:51:13.507Z,0.70
2018-01-19T03:53:40.934Z,0.70
2018-01-19T03:56:08.367Z,0.90
2018-01-19T03:58:35.795Z,0.60
2018-01-19T04:01:03.239Z,0.90
2018-01-19T04:03:30.675Z,0.70
2018-01-19T04:05:58.102Z,1.40
2018-01-19T04:08:25.534Z,8.33
2018-01-19T04:10:52.971Z,30.63
2018-01-19T04:13:20.417Z,4.03
2018-01-19T04:15:48.606Z,1.23
2018-01-19T04:18:16.035Z,0.70
2018-01-19T04:20:43.474Z,0.60
2018-01-19T04:23:10.899Z,0.60
2018-01-19T04:25:38.327Z,0.60
2018-01-19T04:28:05.763Z,0.70
2018-01-19T04:30:33.198Z,0.90
2018-01-19T04:33:00.631Z,0.70
2018-01-19T04:35:28.059Z,0.70
2018-01-19T04:37:55.504Z,0.60
2018-01-19T04:40:22.934Z,1.67
2018-01-19T04:42:51.142Z,2.13
2018-01-19T04:45:19.339Z,6.30
2018-01-19T04:47:47.543Z,5.80
2018-01-19T04:50:15.744Z,3.83
2018-01-19T04:52:43.944Z,5.00
2018-01-19T04:55:12.144Z,2.87
2018-01-19T04:57:40.343Z,2.20
2018-01-19T05:00:08.543Z,2.63
2018-01-19T05:02:35.982Z,2.20
2018-01-19T05:05:03.403Z,2.93
2018-01-19T05:07:31.614Z,3.90
2018-01-19T05:09:59.303Z,5.43
2018-01-19T05:12:27.478Z,5.53
2018-01-19T05:14:55.692Z,6.77
2018-01-19T05:17:23.882Z,4.00
2018-01-19T05:19:52.092Z,3.93
2018-01-19T05:22:20.291Z,7.83
2018-01-19T05:24:47.735Z,4.70
2018-01-19T05:27:15.174Z,4.60
2018-01-19T05:29:42.610Z,1.90
2018-01-19T05:32:10.035Z,2.60
2018-01-19T05:34:37.462Z,2.53
2018-01-19T05:37:04.890Z,4.47
2018-01-19T05:39:32.326Z,3.57
2018-01-19T05:41:59.755Z,3.30
2018-01-19T05:44:27.246Z,3.53
2018-01-19T05:46:54.618Z,3.67
2018-01-19T05:49:22.055Z,2.93
2018-01-19T05:51:49.486Z,1.40
2018-01-19T05:54:16.923Z,1.47
2018-01-19T05:56:44.352Z,0.80
2018-01-19T05:59:11.787Z,0.80
2018-01-19T06:01:39.211Z,1.00
2018-01-19T06:04:06.647Z,1.00
2018-01-19T06:06:34.071Z,0.90
2018-01-19T06:09:01.527Z,1.00
2018-01-19T06:11:29.719Z,0.67
2018-01-19T06:13:57.138Z,0.90
2018-01-19T06:16:24.580Z,0.60
2018-01-19T06:18:52.007Z,0.70
2018-01-19T06:21:19.444Z,0.80
2018-01-19T06:23:46.871Z,0.77
2018-01-19T06:26:14.302Z,1.00
2018-01-19T06:28:41.730Z,0.80
2018-01-19T06:31:09.167Z,0.80
2018-01-19T06:33:36.595Z,1.00
2018-01-19T06:36:04.031Z,1.10
2018-01-19T06:38:32.231Z,0.70
2018-01-19T06:41:00.431Z,0.80
2018-01-19T06:43:28.627Z,1.10
2018-01-19T06:45:56.895Z,0.90
2018-01-19T06:48:25.028Z,0.83
2018-01-19T06:50:53.226Z,0.90
2018-01-19T06:53:21.414Z,1.40
2018-01-19T06:55:48.852Z,1.07
2018-01-19T06:58:17.047Z,1.10
2018-01-19T07:00:45.257Z,1.10
2018-01-19T07:03:13.452Z,0.83
2018-01-19T07:05:40.939Z,0.90
2018-01-19T07:08:08.314Z,0.70
2018-01-19T07:10:35.758Z,1.30
2018-01-19T07:13:03.183Z,0.90
2018-01-19T07:15:30.627Z,0.70
2018-01-19T07:17:58.069Z,1.10
2018-01-19T07:20:25.492Z,1.20
2018-01-19T07:22:52.926Z,1.17
2018-01-19T07:25:20.355Z,1.10
2018-01-19T07:27:47.798Z,1.10
2018-01-19T07:30:15.223Z,1.20
2018-01-19T07:32:43.418Z,1.00
2018-01-19T07:35:11.615Z,1.10
2018-01-19T07:37:39.815Z,1.00
2018-01-19T07:40:08.012Z,0.90
2018-01-19T07:42:36.206Z,1.20
2018-01-19T07:45:04.424Z,1.00
2018-01-19T07:47:32.607Z,1.00
2018-01-19T07:50:01.631Z,0.90
2018-01-19T07:52:29.836Z,1.00
2018-01-19T07:54:58.035Z,1.00
2018-01-19T07:57:26.235Z,1.23
2018-01-19T07:59:53.663Z,0.80
2018-01-19T08:02:21.098Z,1.00
2018-01-19T08:04:49.283Z,1.00
2018-01-19T08:07:17.493Z,1.20
2018-01-19T08:09:45.729Z,1.00
2018-01-19T08:12:13.878Z,1.10
2018-01-19T08:14:42.075Z,1.03
2018-01-19T08:17:10.269Z,1.10
2018-01-19T08:19:37.730Z,1.27
2018-01-19T08:22:05.132Z,1.27
2018-01-19T08:24:33.334Z,4.70
2018-01-19T08:27:01.530Z,4.93
2018-01-19T08:29:29.740Z,2.30
2018-01-19T08:31:57.943Z,1.40
2018-01-19T08:34:25.385Z,3.40
2018-01-19T08:36:52.810Z,1.13
2018-01-19T08:39:20.238Z,1.43
2018-01-19T08:41:47.670Z,1.30
2018-01-19T08:44:15.105Z,1.00
2018-01-19T08:46:42.523Z,1.50
2018-01-19T08:49:10.828Z,3.70
2018-01-19T08:51:39.003Z,1.60
2018-01-19T08:54:06.446Z,1.20
2018-01-19T08:56:33.867Z,1.40
2018-01-19T08:59:02.071Z,1.30
2018-01-19T09:01:30.259Z,1.27
2018-01-19T09:03:58.458Z,1.13
2018-01-19T09:06:26.651Z,0.90
2018-01-19T09:08:54.091Z,8.97
2018-01-19T09:11:21.523Z,4.73
2018-01-19T09:13:49.728Z,1.53
2018-01-19T09:16:17.918Z,1.00
2018-01-19T09:18:46.139Z,1.27
2018-01-19T09:21:13.567Z,1.00
2018-01-19T09:23:40.999Z,1.30
2018-01-19T09:26:08.430Z,1.10
2018-01-19T09:28:35.858Z,0.80
2018-01-19T09:31:03.297Z,1.30
2018-01-19T09:33:30.727Z,1.13
2018-01-19T09:35:58.167Z,1.27
2018-01-19T09:38:25.599Z,1.23
2018-01-19T09:40:53.030Z,1.00
2018-01-19T09:43:20.455Z,1.20
2018-01-19T09:45:47.891Z,1.17
2018-01-19T09:48:15.314Z,1.20
2018-01-19T09:50:42.750Z,1.10
2018-01-19T09:53:10.179Z,1.10
2018-01-19T09:55:37.618Z,1.20
2018-01-19T09:58:05.038Z,1.00
2018-01-19T10:00:32.470Z,1.10
2018-01-19T10:02:59.895Z,1.20
2018-01-19T10:05:27.327Z,1.20
2018-01-19T10:07:54.750Z,0.90
2018-01-19T10:10:22.954Z,1.50
2018-01-19T10:12:50.378Z,1.33
2018-01-19T10:15:17.814Z,1.67
2018-01-19T10:17:45.238Z,1.20
2018-01-19T10:20:12.675Z,1.10
2018-01-19T10:22:40.100Z,0.80
2018-01-19T10:25:08.299Z,0.93
2018-01-19T10:27:35.732Z,1.00
2018-01-19T10:30:03.167Z,1.43
2018-01-19T10:32:30.594Z,0.90
2018-01-19T10:34:58.027Z,0.97
2018-01-19T10:37:25.451Z,1.27
2018-01-19T10:39:53.655Z,0.80
2018-01-19T10:42:21.074Z,0.90
2018-01-19T10:44:48.519Z,0.93
2018-01-19T10:47:15.942Z,0.80
2018-01-19T10:49:43.382Z,0.97
2018-01-19T10:52:10.807Z,0.70
2018-01-19T10:54:38.243Z,0.87
2018-01-19T10:57:05.670Z,0.77
2018-01-19T10:59:33.103Z,0.60
2018-01-19T11:02:00.531Z,0.90
2018-01-19T11:04:27.979Z,0.87
2018-01-19T11:06:55.406Z,0.80
2018-01-19T11:09:22.831Z,0.73
2018-01-19T11:11:50.262Z,0.70
2018-01-19T11:14:17.692Z,0.70
2018-01-19T11:16:45.126Z,0.93
2018-01-19T11:19:12.583Z,1.00
2018-01-19T11:21:40.019Z,1.40
2018-01-19T11:24:08.210Z,0.90
2018-01-19T11:26:36.416Z,0.73
2018-01-19T11:29:04.607Z,1.00
2018-01-19T11:31:32.808Z,0.90
2018-01-19T11:34:00.278Z,0.87
2018-01-19T11:36:27.667Z,0.80
2018-01-19T11:38:55.859Z,0.60
2018-01-19T11:41:24.062Z,0.90
2018-01-19T11:43:52.259Z,0.70
2018-01-19T11:46:20.450Z,0.80
2018-01-19T11:48:48.647Z,0.70
2018-01-19T11:51:16.079Z,0.80
2018-01-19T11:53:43.519Z,1.00
2018-01-19T11:56:11.719Z,0.60
2018-01-19T11:58:39.915Z,0.83
2018-01-19T12:01:08.114Z,2.20
2018-01-19T12:03:36.302Z,1.50
2018-01-19T12:06:04.539Z,1.40
2018-01-19T12:08:32.719Z,1.30
2018-01-19T12:11:00.915Z,3.33
2018-01-19T12:13:29.111Z,6.87
2018-01-19T12:15:57.306Z,1.20
2018-01-19T12:18:25.490Z,1.27
2018-01-19T12:20:52.927Z,1.03
2018-01-19T12:23:20.346Z,0.80
2018-01-19T12:25:47.782Z,1.33
2018-01-19T12:28:15.211Z,1.23
2018-01-19T12:30:42.642Z,0.97
2018-01-19T12:33:10.075Z,0.90
2018-01-19T12:35:37.508Z,0.80
2018-01-19T12:38:04.931Z,0.70
2018-01-19T12:40:32.362Z,0.77
2018-01-19T12:42:59.835Z,0.97
2018-01-19T12:45:27.270Z,1.00
2018-01-19T12:47:54.698Z,0.77
2018-01-19T12:50:22.142Z,0.83
2018-01-19T12:52:49.575Z,1.10
2018-01-19T12:55:16.998Z,1.20
2018-01-19T12:57:44.431Z,1.07
2018-01-19T13:00:11.863Z,1.10
2018-01-19T13:02:39.292Z,1.10
2018-01-19T13:05:06.719Z,1.10
2018-01-19T13:07:34.154Z,0.73
2018-01-19T13:10:01.570Z,0.70
2018-01-19T13:12:29.007Z,1.00
2018-01-19T13:14:56.431Z,1.03
2018-01-19T13:17:23.866Z,0.97
2018-01-19T13:19:51.287Z,0.93
2018-01-19T13:22:18.722Z,1.10
2018-01-19T13:24:46.167Z,0.70
2018-01-19T13:27:13.599Z,0.90
2018-01-19T13:29:41.022Z,1.03
2018-01-19T13:32:08.455Z,1.17
2018-01-19T13:34:35.875Z,1.20
2018-01-19T13:37:03.317Z,1.03
2018-01-19T13:39:30.742Z,0.70
2018-01-19T13:41:58.179Z,0.97
2018-01-19T13:44:25.609Z,1.57
2018-01-19T13:46:53.042Z,1.13
2018-01-19T13:49:20.475Z,1.10
2018-01-19T13:51:48.684Z,1.43
2018-01-19T13:54:16.870Z,0.93
2018-01-19T13:56:45.071Z,0.80
2018-01-19T13:59:13.262Z,0.97
2018-01-19T14:01:40.702Z,1.10
2018-01-19T14:04:08.130Z,1.30
2018-01-19T14:06:36.322Z,2.33
2018-01-19T14:09:04.546Z,2.53
2018-01-19T14:11:32.724Z,1.87
2018-01-19T14:14:00.922Z,2.20
2018-01-19T14:16:29.119Z,3.20
2018-01-19T14:18:56.554Z,3.00
2018-01-19T14:21:23.983Z,3.80
2018-01-19T14:23:52.192Z,6.73
2018-01-19T14:26:20.382Z,2.53
2018-01-19T14:28:48.582Z,1.10
2018-01-19T14:31:16.778Z,1.53
2018-01-19T14:33:44.975Z,0.80
2018-01-19T14:36:13.171Z,0.80
2018-01-19T14:38:41.374Z,1.07
2018-01-19T14:41:09.566Z,1.30
2018-01-19T14:43:37.759Z,1.07
2018-01-19T14:46:05.954Z,1.00
2018-01-19T14:48:33.395Z,1.07
2018-01-19T14:51:00.819Z,1.20
2018-01-19T14:53:28.250Z,1.80
2018-01-19T14:55:55.676Z,2.23
2018-01-19T14:58:23.110Z,1.90
2018-01-19T15:00:50.540Z,2.80
2018-01-19T15:03:17.986Z,3.47
2018-01-19T15:05:45.416Z,2.67
2018-01-19T15:08:13.610Z,1.77
2018-01-19T15:10:41.802Z,3.60
2018-01-19T15:13:10.007Z,2.20
2018-01-19T15:15:38.199Z,3.10
2018-01-19T15:18:06.400Z,2.23
2018-01-19T15:20:34.595Z,2.40
2018-01-19T15:23:02.799Z,1.30
2018-01-19T15:25:30.991Z,1.93
2018-01-19T15:27:59.191Z,2.87
2018-01-19T15:30:27.383Z,3.73
2018-01-19T15:32:54.814Z,3.10
2018-01-19T15:35:22.239Z,3.83
2018-01-19T15:37:49.671Z,3.57
2018-01-19T15:40:17.099Z,2.30
2018-01-19T15:42:44.531Z,2.20
2018-01-19T15:45:11.962Z,1.77
2018-01-19T15:47:39.393Z,1.10
2018-01-19T15:50:06.819Z,1.43
2018-01-19T15:52:34.258Z,1.30
2018-01-19T15:55:14.475Z,1.10
2018-01-19T15:57:41.910Z,1.13
2018-01-19T16:00:09.339Z,1.30
2018-01-19T16:02:36.770Z,1.67
2018-01-19T16:05:04.195Z,1.47
2018-01-19T16:07:31.626Z,0.80
2018-01-19T16:09:59.059Z,2.07
2018-01-19T16:12:26.491Z,1.60
2018-01-19T16:14:53.910Z,2.93
2018-01-19T16:17:21.343Z,4.17
2018-01-19T16:19:48.771Z,3.47
2018-01-19T16:22:16.201Z,5.97
2018-01-19T16:24:43.635Z,10.60
2018-01-19T16:27:11.071Z,27.30
2018-01-19T16:29:38.507Z,23.30
2018-01-19T16:32:05.938Z,22.00
2018-01-19T16:34:33.380Z,13.37
2018-01-19T16:37:00.807Z,9.83
2018-01-19T16:39:28.242Z,9.50
2018-01-19T16:41:55.678Z,10.23
2018-01-19T16:44:23.891Z,10.83
2018-01-19T16:46:52.078Z,4.87
2018-01-19T16:49:20.278Z,5.90
2018-01-19T16:51:48.467Z,5.40
2018-01-19T16:54:15.902Z,6.73
2018-01-19T16:56:43.330Z,6.27
2018-01-19T16:59:10.763Z,2.83
2018-01-19T17:01:38.186Z,2.40
2018-01-19T17:04:05.622Z,2.23
2018-01-19T17:06:33.046Z,1.80
2018-01-19T17:09:00.478Z,1.10
2018-01-19T17:11:27.906Z,1.30
2018-01-19T17:13:55.343Z,1.87
2018-01-19T17:16:22.771Z,2.27
2018-01-19T17:18:50.211Z,3.40
2018-01-19T17:21:17.634Z,1.60
2018-01-19T17:23:45.062Z,1.87
2018-01-19T17:26:12.491Z,1.17
2018-01-19T17:28:39.926Z,1.57
2018-01-19T17:31:07.355Z,1.23
2018-01-19T17:33:34.790Z,1.30
2018-01-19T17:36:02.215Z,1.83
2018-01-19T17:38:29.650Z,1.10
2018-01-19T17:40:57.079Z,1.53
2018-01-19T17:43:24.526Z,1.57
2018-01-19T17:45:51.950Z,5.77
2018-01-19T17:48:19.382Z,7.10
2018-01-19T17:50:46.814Z,42.80
2018-01-19T17:53:14.250Z,9.20
2018-01-19T17:55:41.679Z,7.17
2018-01-19T17:58:09.111Z,4.30
2018-01-19T18:00:36.539Z,3.17
2018-01-19T18:03:03.971Z,3.13
2018-01-19T18:05:31.406Z,4.10
2018-01-19T18:07:58.835Z,4.03
2018-01-19T18:10:26.271Z,3.80
2018-01-19T18:12:53.699Z,7.20
2018-01-19T18:15:21.139Z,4.67
2018-01-19T18:17:48.563Z,7.50
2018-01-19T18:20:16.004Z,6.73
2018-01-19T18:22:43.430Z,5.37
2018-01-19T18:25:10.866Z,7.03
2018-01-19T18:27:38.294Z,6.30
2018-01-19T18:30:05.731Z,5.63
2018-01-19T18:32:33.919Z,5.80
2018-01-19T18:35:01.356Z,5.73
2018-01-19T18:37:28.787Z,6.37
2018-01-19T18:39:56.229Z,17.23
2018-01-19T18:42:23.658Z,13.83
2018-01-19T18:44:51.863Z,16.73
2018-01-19T18:47:20.072Z,19.10
2018-01-19T18:49:48.276Z,17.83
2018-01-19T18:52:16.478Z,17.40
2018-01-19T18:54:44.678Z,18.43
2018-01-19T18:57:12.880Z,16.27
2018-01-19T18:59:41.124Z,15.27
2018-01-19T19:02:08.592Z,12.73
2018-01-19T19:04:36.016Z,8.73
2018-01-19T19:07:03.447Z,12.60
2018-01-19T19:09:30.889Z,9.10
2018-01-19T19:11:58.318Z,12.27
2018-01-19T19:14:25.754Z,9.83
2018-01-19T19:16:53.183Z,8.70
2018-01-19T19:19:20.623Z,6.83
2018-01-19T19:21:48.054Z,4.80
2018-01-19T19:24:15.487Z,5.00
2018-01-19T19:26:42.970Z,4.80
2018-01-19T19:29:10.388Z,4.43
2018-01-19T19:31:38.630Z,3.97
2018-01-19T19:34:06.050Z,5.53
2018-01-19T19:36:33.483Z,13.40
2018-01-19T19:39:00.957Z,6.50
2018-01-19T19:41:28.447Z,7.00
2018-01-19T19:43:55.910Z,9.50
2018-01-19T19:46:24.091Z,8.07
2018-01-19T19:48:52.346Z,7.47
2018-01-19T19:51:19.818Z,4.90
2018-01-19T19:53:47.234Z,4.50
2018-01-19T19:56:14.717Z,7.60
2018-01-19T19:58:43.002Z,5.83
2018-01-19T20:01:10.478Z,4.20
2018-01-19T20:03:37.953Z,5.50
2018-01-19T20:06:05.387Z,4.77
2018-01-19T20:08:33.630Z,5.20
2018-01-19T20:11:01.095Z,3.03
2018-01-19T20:13:29.325Z,3.20
2018-01-19T20:15:56.784Z,3.80
2018-01-19T20:18:24.241Z,5.80
2018-01-19T20:20:51.719Z,5.60
2018-01-19T20:23:19.180Z,7.23
2018-01-19T20:25:46.649Z,8.17
2018-01-19T20:28:14.104Z,5.43
2018-01-19T20:30:41.530Z,4.97
2018-01-19T20:33:08.997Z,6.80
2018-01-19T20:35:36.469Z,5.33
2018-01-19T20:38:03.932Z,5.40
2018-01-19T20:40:31.354Z,4.33
2018-01-19T20:42:58.794Z,5.10
2018-01-19T20:45:26.223Z,4.00
2018-01-19T20:47:53.655Z,3.43
2018-01-19T20:50:21.128Z,4.13
2018-01-19T20:52:48.598Z,3.33
2018-01-19T20:55:16.824Z,4.23
2018-01-19T20:57:44.303Z,4.37
2018-01-19T21:00:11.760Z,4.10
2018-01-19T21:02:39.958Z,5.40
2018-01-19T21:05:07.442Z,4.60
2018-01-19T21:07:35.673Z,4.10
2018-01-19T21:10:03.142Z,3.27
2018-01-19T21:12:30.609Z,3.33
2018-01-19T21:14:58.068Z,4.03
2018-01-19T21:17:26.296Z,4.37
2018-01-19T21:19:53.779Z,4.10
2018-01-19T21:22:21.228Z,4.00
2018-01-19T21:24:48.703Z,3.70
2018-01-19T21:27:16.120Z,3.93
2018-01-19T21:29:43.559Z,3.87
2018-01-19T21:32:10.982Z,4.27
2018-01-19T21:34:38.424Z,3.57
2018-01-19T21:37:06.657Z,3.30
2018-01-19T21:39:34.488Z,4.97
2018-01-19T21:42:01.898Z,4.60
2018-01-19T21:44:30.136Z,3.73
2018-01-19T21:46:57.593Z,4.33
2018-01-19T21:49:25.870Z,2.97
2018-01-19T21:51:53.329Z,3.77
2018-01-19T21:54:20.784Z,4.00
2018-01-19T21:56:48.262Z,4.27
2018-01-19T21:59:15.722Z,4.00
2018-01-19T22:01:43.143Z,5.80
2018-01-19T22:04:10.618Z,5.17
2018-01-19T22:06:38.035Z,3.70
2018-01-19T22:09:06.235Z,7.40
2018-01-19T22:11:34.476Z,6.90
2018-01-19T22:14:01.891Z,4.53
2018-01-19T22:16:29.378Z,5.50
2018-01-19T22:18:56.790Z,5.20
2018-01-19T22:21:24.272Z,7.53
2018-01-19T22:23:52.497Z,4.90
2018-01-19T22:26:19.927Z,7.40
2018-01-19T22:28:47.350Z,5.93
2018-01-19T22:31:15.085Z,6.50
2018-01-19T22:33:42.546Z,5.47
2018-01-19T22:36:09.967Z,7.10
2018-01-19T22:38:38.170Z,5.67
2018-01-19T22:41:06.358Z,5.00
2018-01-19T22:43:34.610Z,3.93
2018-01-19T22:46:02.073Z,4.23
2018-01-19T22:48:29.541Z,3.77
2018-01-19T22:50:57.770Z,3.27
2018-01-19T22:53:25.190Z,3.80
2018-01-19T22:55:52.669Z,3.60
2018-01-19T22:58:20.138Z,4.50
2018-01-19T23:00:47.607Z,3.60
2018-01-19T23:03:15.074Z,3.13
2018-01-19T23:05:42.532Z,3.17
2018-01-19T23:08:10.011Z,3.57
2018-01-19T23:10:38.229Z,3.20
2018-01-19T23:13:05.698Z,2.60
2018-01-19T23:15:33.148Z,3.83
2018-01-19T23:18:00.567Z,3.27
2018-01-19T23:20:28.037Z,2.80
2018-01-19T23:22:55.496Z,3.30
2018-01-19T23:25:23.730Z,2.87
2018-01-19T23:27:51.206Z,3.37
2018-01-19T23:30:18.675Z,3.20
2018-01-19T23:32:46.147Z,3.50
2018-01-19T23:35:14.330Z,3.07
2018-01-19T23:37:42.594Z,3.90
2018-01-19T23:40:10.011Z,2.73
2018-01-19T23:42:38.244Z,3.30
2018-01-19T23:45:05.672Z,3.60
2018-01-19T23:47:33.098Z,3.53
2018-01-19T23:50:00.996Z,3.23
2018-01-19T23:52:28.471Z,2.90
2018-01-19T23:54:56.654Z,2.80
2018-01-19T23:57:24.847Z,2.90
2018-01-19T23:59:53.062Z,3.17
